Главная страница
METAR-TAF:

METAR-TAF

Аэропорты :

Вардё, Норвегия

широта: 70-21N, долгота: 031-03E, высота над уровнем моря: 12 м

Текущие метеонаблюдения

Эта сводка был подготовлена 31 минут назад, в 08:50 UTC
Ветер 34 Узел от юго-западный
Температура -11°C
Влажность 78%
Давление 1006 hPa
Видимость 10 км и более
Отдельные облака на высоте 600 фута

METAR: ENSS 170850Z 22034KT 9999 SCT006 M11/M14 Q1006 RMK WIND 500FT 23041KT

Время: 10:21 (09:21 UTC)


TAF: отсутствует

Метеонаблюдения и прогнозы для более 4000 аэропортов (сводки METAR и TAF).

Имеющиеся станции представлены на карте желтыми и красными точками.

Чтобы увидеть название станции, наведите на нее мышь.

Затем щелкните, чтобы увидеть метеонаблюдения и метеопрогнозы.

Управление картой: чтобы увеличить масштаб, щелкните зеленые кнопки с черным крестиком; чтобы уменьшить масштаб, щелкните зеленую кнопку с тире; для просмотра соседних карт щелкайте зеленые стрелки.


METAR-TAF: